Time;durP1;ratioP1;P1;durP2;ratioP2;P2;SDS_P1;SDS_P2;PMS_P1;PMS_P2;Temp;Humidity;BMP_temperature;BMP_pressure;BME280_temperature;BME280_humidity;BME280_pressure;Samples;Min_cycle;Max_cycle;Signal;HPM_P1;HPM_P2
2021/04/20 00:00:30;;;;;;;16.90;15.30;;;8.70;72.30;;;;;;5031858;28;20482;-85
2021/04/20 00:02:56;;;;;;;17.10;15.33;;;8.70;72.20;;;;;;5030288;28;20220;-85
2021/04/20 00:05:22;;;;;;;16.57;14.97;;;8.80;72.20;;;;;;5058664;28;20300;-84
2021/04/20 00:07:48;;;;;;;16.73;15.03;;;8.80;71.90;;;;;;5038511;28;20556;-85
2021/04/20 00:10:16;;;;;;;18.03;15.23;;;8.80;71.70;;;;;;5031586;28;20257;-85
2021/04/20 00:12:43;;;;;;;18.67;16.77;;;8.70;71.60;;;;;;5026962;28;20185;-85
2021/04/20 00:15:13;;;;;;;17.93;16.17;;;8.70;72.00;;;;;;5026690;28;20369;-85
2021/04/20 00:17:38;;;;;;;18.63;16.30;;;8.60;72.10;;;;;;5026330;28;20204;-85
2021/04/20 00:20:10;;;;;;;19.30;17.40;;;8.60;72.90;;;;;;5026137;28;20178;-85
2021/04/20 00:22:36;;;;;;;17.73;16.07;;;8.60;73.20;;;;;;5026340;28;20192;-85
2021/04/20 00:25:02;;;;;;;16.63;14.97;;;8.50;72.00;;;;;;5026267;28;20245;-85
2021/04/20 00:27:28;;;;;;;16.53;14.90;;;8.50;72.10;;;;;;5026052;28;20236;-85
2021/04/20 00:29:53;;;;;;;16.23;14.73;;;8.50;72.00;;;;;;5026718;28;20177;-85
2021/04/20 00:32:19;;;;;;;15.90;14.37;;;8.40;71.60;;;;;;5025459;28;20190;-85
2021/04/20 00:34:45;;;;;;;16.07;14.57;;;8.50;72.50;;;;;;5026951;28;20174;-85
2021/04/20 00:37:11;;;;;;;16.07;14.47;;;8.50;71.80;;;;;;5025042;28;20209;-85
2021/04/20 00:39:38;;;;;;;15.33;13.77;;;8.50;71.00;;;;;;5008420;28;20224;-85
2021/04/20 00:42:05;;;;;;;16.30;14.53;;;8.40;70.90;;;;;;5025802;28;20178;-85
2021/04/20 00:44:32;;;;;;;16.67;14.97;;;8.40;71.80;;;;;;5025056;28;20717;-85
2021/04/20 00:46:59;;;;;;;16.47;14.87;;;8.30;71.60;;;;;;5025182;28;20244;-85
2021/04/20 00:49:26;;;;;;;15.80;14.27;;;8.40;71.60;;;;;;5025961;28;20265;-85
2021/04/20 00:51:52;;;;;;;15.73;14.13;;;8.30;71.40;;;;;;5026018;28;20181;-85
2021/04/20 00:54:19;;;;;;;16.50;14.80;;;8.40;71.50;;;;;;5025869;28;20182;-85
2021/04/20 00:56:45;;;;;;;17.97;16.17;;;8.40;71.40;;;;;;5042016;28;20208;-85
2021/04/20 00:59:11;;;;;;;16.83;15.13;;;8.30;71.60;;;;;;5077920;28;20215;-85
2021/04/20 01:01:38;;;;;;;16.57;14.87;;;8.10;72.50;;;;;;5045351;28;20173;-85
2021/04/20 01:04:04;;;;;;;17.50;15.80;;;8.00;72.60;;;;;;5045352;28;20185;-84
2021/04/20 01:06:31;;;;;;;16.80;14.90;;;8.00;73.60;;;;;;5043723;28;20209;-86
2021/04/20 01:08:57;;;;;;;16.73;15.03;;;8.00;73.90;;;;;;5044330;28;20220;-85
2021/04/20 01:11:24;;;;;;;14.73;13.23;;;8.00;74.70;;;;;;5045331;28;20178;-85
2021/04/20 01:13:51;;;;;;;16.47;14.77;;;8.00;74.60;;;;;;5040744;28;20189;-85
2021/04/20 01:16:20;;;;;;;16.33;14.43;;;8.10;73.90;;;;;;5023818;28;20224;-85
2021/04/20 01:18:46;;;;;;;15.63;13.93;;;8.10;73.30;;;;;;5043225;28;20193;-85
2021/04/20 01:21:14;;;;;;;15.13;13.60;;;8.10;73.60;;;;;;5044620;28;20199;-85
2021/04/20 01:23:49;;;;;;;16.47;14.73;;;8.20;73.20;;;;;;5044542;28;20193;-85
2021/04/20 01:26:16;;;;;;;15.83;14.33;;;8.10;71.90;;;;;;5044333;28;20204;-85
2021/04/20 01:28:43;;;;;;;15.37;13.93;;;8.00;72.20;;;;;;5044487;28;20197;-85
2021/04/20 01:31:10;;;;;;;15.80;14.30;;;8.10;71.90;;;;;;5038542;28;20173;-85
2021/04/20 01:33:36;;;;;;;14.73;13.30;;;8.00;71.00;;;;;;5031317;28;20200;-85
2021/04/20 01:36:03;;;;;;;15.10;13.27;;;7.80;71.80;;;;;;5031596;28;20209;-85
2021/04/20 01:38:31;;;;;;;16.43;14.73;;;7.70;72.70;;;;;;5024857;28;20209;-86
2021/04/20 01:40:58;;;;;;;16.63;14.50;;;7.80;72.50;;;;;;5029491;28;20649;-86
2021/04/20 01:43:24;;;;;;;18.00;16.17;;;7.80;72.60;;;;;;5044301;28;20205;-84
2021/04/20 01:45:50;;;;;;;16.90;15.17;;;7.70;72.70;;;;;;5044352;28;20677;-84
2021/04/20 01:48:16;;;;;;;16.87;15.23;;;7.70;73.40;;;;;;5043644;28;20292;-85
2021/04/20 01:50:43;;;;;;;16.90;15.30;;;7.70;73.20;;;;;;5043183;28;20213;-85
2021/04/20 01:53:09;;;;;;;18.93;16.93;;;7.70;73.10;;;;;;5043744;28;20180;-85
2021/04/20 01:55:36;;;;;;;16.37;14.70;;;7.70;73.50;;;;;;5031150;28;20197;-85
2021/04/20 01:58:03;;;;;;;18.00;16.20;;;7.60;73.30;;;;;;5043635;28;20508;-86
2021/04/20 02:00:30;;;;;;;17.83;16.13;;;7.70;73.40;;;;;;5044121;28;20198;-85
2021/04/20 02:02:57;;;;;;;18.90;16.37;;;7.70;73.40;;;;;;5043952;28;20192;-85
2021/04/20 02:05:24;;;;;;;17.93;16.23;;;7.70;72.90;;;;;;5026098;28;20224;-85
2021/04/20 02:07:50;;;;;;;16.77;14.83;;;7.70;72.50;;;;;;5025496;28;20588;-84
2021/04/20 02:10:16;;;;;;;16.80;14.80;;;7.70;72.70;;;;;;5035486;28;20181;-85
2021/04/20 02:12:43;;;;;;;16.77;15.07;;;7.70;72.20;;;;;;5031324;28;20653;-85
2021/04/20 02:15:12;;;;;;;17.33;15.43;;;7.60;71.70;;;;;;5041846;28;20205;-85
2021/04/20 02:17:38;;;;;;;15.70;14.10;;;7.60;71.50;;;;;;5042124;28;20183;-84
2021/04/20 02:20:11;;;;;;;15.73;14.23;;;7.50;71.10;;;;;;5044213;28;20185;-85
2021/04/20 02:22:39;;;;;;;14.33;12.93;;;7.40;71.90;;;;;;5043365;28;20205;-85
2021/04/20 02:25:10;;;;;;;15.20;13.53;;;7.40;72.10;;;;;;5043888;28;20241;-85
2021/04/20 02:27:37;;;;;;;17.67;14.53;;;7.40;71.80;;;;;;5043709;28;20220;-85
2021/04/20 02:30:04;;;;;;;16.13;14.43;;;7.40;72.10;;;;;;5075973;28;20189;-85
2021/04/20 02:32:31;;;;;;;15.50;13.90;;;7.30;72.40;;;;;;5035849;28;20324;-85
2021/04/20 02:34:59;;;;;;;17.27;15.37;;;7.40;72.10;;;;;;5023089;28;20721;-85
2021/04/20 02:37:25;;;;;;;17.00;15.20;;;7.40;72.30;;;;;;5023052;28;20601;-84
2021/04/20 02:39:51;;;;;;;18.00;15.90;;;7.30;72.10;;;;;;5022230;28;20196;-85
2021/04/20 02:42:17;;;;;;;16.57;14.87;;;7.20;71.60;;;;;;5022772;28;20313;-85
2021/04/20 02:44:43;;;;;;;16.00;14.30;;;7.10;72.50;;;;;;5022971;28;20220;-85
2021/04/20 02:47:09;;;;;;;15.70;13.37;;;7.00;72.90;;;;;;5021922;28;20270;-85
2021/04/20 02:49:38;;;;;;;15.40;13.90;;;7.00;72.50;;;;;;5022515;28;20181;-86
2021/04/20 02:52:04;;;;;;;15.50;13.90;;;7.00;71.70;;;;;;5024768;28;20247;-85
2021/04/20 02:54:30;;;;;;;15.03;13.57;;;6.90;72.00;;;;;;5052644;28;20161;-85
2021/04/20 02:56:59;;;;;;;15.13;13.57;;;6.90;72.50;;;;;;5037019;28;20220;-84
2021/04/20 02:59:25;;;;;;;14.93;13.43;;;7.00;72.70;;;;;;5025757;28;20569;-84
2021/04/20 03:01:51;;;;;;;15.13;13.67;;;7.00;72.50;;;;;;5023174;28;20192;-85
2021/04/20 03:04:18;;;;;;;16.10;14.40;;;7.00;72.00;;;;;;5042425;28;20189;-85
2021/04/20 03:06:44;;;;;;;15.07;13.20;;;7.00;71.90;;;;;;5042395;28;20212;-86
2021/04/20 03:09:13;;;;;;;15.63;14.23;;;7.00;71.80;;;;;;5043220;28;20176;-85
2021/04/20 03:11:41;;;;;;;15.50;13.90;;;7.00;71.30;;;;;;5042356;28;20326;-84
2021/04/20 03:14:07;;;;;;;15.80;13.70;;;6.90;71.90;;;;;;5043021;28;20231;-85
2021/04/20 03:16:34;;;;;;;16.00;14.40;;;6.80;71.80;;;;;;5043172;28;20201;-84
2021/04/20 03:19:03;;;;;;;15.37;13.77;;;6.80;72.40;;;;;;5043825;28;20170;-85
2021/04/20 03:21:31;;;;;;;14.27;12.87;;;6.80;72.40;;;;;;5043851;28;20199;-85
2021/04/20 03:23:58;;;;;;;14.97;13.57;;;6.80;71.80;;;;;;5042288;28;20185;-85
2021/04/20 03:26:40;;;;;;;15.57;13.97;;;6.80;72.50;;;;;;5042212;28;20220;-85
2021/04/20 03:29:08;;;;;;;15.63;14.03;;;6.80;72.60;;;;;;5044427;28;20161;-85
2021/04/20 03:31:39;;;;;;;18.97;15.93;;;6.70;72.10;;;;;;5043746;28;20233;-84
2021/04/20 03:34:08;;;;;;;14.33;12.87;;;6.70;71.80;;;;;;5034531;28;20193;-84
2021/04/20 03:36:39;;;;;;;16.13;14.43;;;6.60;73.10;;;;;;5025926;28;20202;-85
2021/04/20 03:39:21;;;;;;;15.43;13.83;;;6.50;73.80;;;;;;5026543;28;20170;-83
2021/04/20 03:42:10;;;;;;;14.63;13.13;;;6.50;73.30;;;;;;5038140;28;20306;-86
2021/04/20 03:44:42;;;;;;;14.03;12.70;;;6.50;72.80;;;;;;5047481;28;20278;-85
2021/04/20 03:47:14;;;;;;;12.33;11.17;;;6.50;73.30;;;;;;5043677;28;20231;-85
2021/04/20 03:49:43;;;;;;;13.50;12.23;;;6.60;73.80;;;;;;5046929;28;20165;-85
2021/04/20 03:52:28;;;;;;;13.50;12.20;;;6.60;74.20;;;;;;5045530;28;20950;-85
2021/04/20 03:54:56;;;;;;;13.27;12.00;;;6.60;74.20;;;;;;5046270;28;20160;-85
2021/04/20 03:57:26;;;;;;;13.03;11.70;;;6.60;74.10;;;;;;5028119;28;20203;-85
2021/04/20 03:59:56;;;;;;;13.77;12.43;;;6.60;74.00;;;;;;5045148;28;20189;-84
2021/04/20 04:02:23;;;;;;;15.00;13.60;;;6.60;73.60;;;;;;5041995;28;20178;-84
2021/04/20 04:04:50;;;;;;;13.40;11.90;;;6.60;73.60;;;;;;5043429;28;20181;-84
2021/04/20 04:07:18;;;;;;;13.33;12.13;;;6.50;74.80;;;;;;5041377;28;20205;-84
2021/04/20 04:09:47;;;;;;;12.33;11.13;;;6.50;74.80;;;;;;5041538;28;20217;-84
2021/04/20 04:12:14;;;;;;;12.87;11.53;;;6.50;75.20;;;;;;5042496;28;20188;-85
2021/04/20 04:14:40;;;;;;;14.50;13.03;;;6.50;74.50;;;;;;5041620;28;20181;-87
2021/04/20 04:17:09;;;;;;;13.20;11.90;;;6.40;74.50;;;;;;5037957;28;20205;-86
2021/04/20 04:19:38;;;;;;;12.87;11.53;;;6.40;74.20;;;;;;5038487;28;20181;-87
2021/04/20 04:22:11;;;;;;;13.23;11.80;;;6.40;74.30;;;;;;5022562;28;20181;-86
2021/04/20 04:24:44;;;;;;;12.90;11.70;;;6.40;73.50;;;;;;5021929;28;20178;-87
2021/04/20 04:27:13;;;;;;;14.23;12.80;;;6.30;73.50;;;;;;5028002;28;20204;-88
2021/04/20 04:29:41;;;;;;;13.80;12.40;;;6.30;73.40;;;;;;5042695;28;20184;-87
2021/04/20 04:32:10;;;;;;;17.47;12.77;;;6.30;73.90;;;;;;5037552;28;20200;-87
2021/04/20 04:34:38;;;;;;;14.73;13.23;;;6.30;72.90;;;;;;5044450;28;20235;-87
2021/04/20 04:37:05;;;;;;;11.80;10.70;;;6.20;72.80;;;;;;5025382;28;20295;-86
2021/04/20 04:39:31;;;;;;;12.03;10.93;;;6.00;73.80;;;;;;5032853;28;20269;-84
2021/04/20 04:41:57;;;;;;;11.47;10.47;;;5.90;74.20;;;;;;5030664;28;20208;-85
2021/04/20 04:44:23;;;;;;;11.13;10.13;;;5.90;74.80;;;;;;5035576;28;20188;-86
2021/04/20 04:46:48;;;;;;;12.20;10.97;;;5.90;75.50;;;;;;5047195;28;20208;-85
2021/04/20 04:49:16;;;;;;;15.70;14.00;;;5.90;75.40;;;;;;5055877;28;20204;-84
2021/04/20 04:51:42;;;;;;;12.13;11.03;;;5.90;75.80;;;;;;5058322;28;20169;-84
2021/04/20 04:54:12;;;;;;;15.53;12.33;;;5.90;75.00;;;;;;5056213;28;20700;-86
2021/04/20 04:56:42;;;;;;;14.03;12.63;;;6.00;74.30;;;;;;5041030;28;20293;-87
2021/04/20 04:59:14;;;;;;;15.13;13.60;;;6.00;74.00;;;;;;5041835;28;20191;-85
2021/04/20 05:01:41;;;;;;;16.07;13.60;;;5.80;74.10;;;;;;5040130;28;20193;-84
2021/04/20 05:04:09;;;;;;;14.50;13.00;;;5.60;75.00;;;;;;5046019;28;20189;-84
2021/04/20 05:06:44;;;;;;;13.20;11.87;;;5.40;76.90;;;;;;5046653;28;20216;-84
2021/04/20 05:09:15;;;;;;;14.20;12.70;;;5.60;76.80;;;;;;5047196;28;20199;-84
2021/04/20 05:11:43;;;;;;;16.00;13.47;;;5.70;76.30;;;;;;5044538;28;20623;-86
2021/04/20 05:14:20;;;;;;;13.77;12.20;;;5.80;75.50;;;;;;5042044;28;20188;-85
2021/04/20 05:16:51;;;;;;;14.63;13.13;;;5.90;75.90;;;;;;5042532;28;20201;-84
2021/04/20 05:19:25;;;;;;;14.37;12.83;;;5.80;76.10;;;;;;5042631;28;20208;-83
2021/04/20 05:21:51;;;;;;;14.53;12.83;;;5.70;76.80;;;;;;5043706;28;20172;-84
2021/04/20 05:24:21;;;;;;;18.23;16.43;;;5.60;77.00;;;;;;5032776;28;20177;-84
2021/04/20 05:26:47;;;;;;;13.77;12.40;;;5.40;77.00;;;;;;5023507;28;20227;-86
2021/04/20 05:29:13;;;;;;;13.20;11.90;;;5.50;78.20;;;;;;5024549;28;20174;-87
2021/04/20 05:31:39;;;;;;;14.97;12.37;;;5.70;77.80;;;;;;5030547;28;20837;-85
2021/04/20 05:34:06;;;;;;;12.57;11.23;;;5.80;77.30;;;;;;5044732;28;20252;-85
2021/04/20 05:36:34;;;;;;;11.87;10.77;;;5.90;76.90;;;;;;5043817;28;20251;-84
2021/04/20 05:39:06;;;;;;;15.03;13.53;;;6.10;76.80;;;;;;5044565;28;20181;-84
2021/04/20 05:41:33;;;;;;;14.97;13.47;;;6.10;76.80;;;;;;5043151;28;20177;-84
2021/04/20 05:44:00;;;;;;;20.53;15.63;;;6.10;77.40;;;;;;5077205;28;20212;-85
2021/04/20 05:46:27;;;;;;;17.40;14.17;;;6.00;78.20;;;;;;5045855;28;20307;-85
2021/04/20 05:48:54;;;;;;;16.90;14.17;;;6.20;79.10;;;;;;5042921;28;20221;-85
2021/04/20 05:51:21;;;;;;;16.93;14.13;;;6.30;79.10;;;;;;5041996;28;20184;-85
2021/04/20 05:53:48;;;;;;;18.63;15.07;;;6.40;79.40;;;;;;5044502;28;20185;-86
2021/04/20 05:56:15;;;;;;;29.63;15.73;;;6.50;80.00;;;;;;5043190;28;20220;-85
2021/04/20 05:58:41;;;;;;;18.83;15.00;;;6.30;80.40;;;;;;5043412;28;20192;-86
2021/04/20 06:01:07;;;;;;;18.80;15.23;;;6.40;81.80;;;;;;5075995;28;20192;-85
2021/04/20 06:03:37;;;;;;;19.63;16.37;;;6.50;82.00;;;;;;5043098;28;20208;-85
2021/04/20 06:06:05;;;;;;;16.83;15.07;;;6.70;81.90;;;;;;5044498;28;20216;-87
2021/04/20 06:08:32;;;;;;;25.03;22.63;;;6.80;81.70;;;;;;5044597;28;20235;-85
2021/04/20 06:10:59;;;;;;;24.23;17.67;;;6.80;83.30;;;;;;5042811;28;20193;-86
2021/04/20 06:13:26;;;;;;;20.70;18.60;;;6.90;83.30;;;;;;5043788;28;20200;-85
2021/04/20 06:15:53;;;;;;;18.97;16.97;;;6.90;84.80;;;;;;5042258;28;20207;-86
2021/04/20 06:18:20;;;;;;;17.87;16.17;;;6.90;85.00;;;;;;5042901;28;20189;-85
2021/04/20 06:20:50;;;;;;;20.77;17.17;;;6.90;84.90;;;;;;5042496;28;20199;-84
2021/04/20 06:23:17;;;;;;;20.77;18.53;;;7.00;85.40;;;;;;5042080;28;20193;-83
2021/04/20 06:25:44;;;;;;;20.87;18.60;;;7.10;86.00;;;;;;5043767;28;20200;-84
2021/04/20 06:28:14;;;;;;;19.70;17.60;;;7.10;85.80;;;;;;5048795;28;20600;-86
2021/04/20 06:30:41;;;;;;;20.60;18.23;;;7.20;85.20;;;;;;5045848;28;20248;-83
2021/04/20 06:33:08;;;;;;;20.93;18.73;;;7.30;85.70;;;;;;5045149;28;20185;-85
2021/04/20 06:35:36;;;;;;;19.33;17.33;;;7.50;86.00;;;;;;5045001;28;20292;-85
2021/04/20 06:38:02;;;;;;;21.40;19.20;;;7.50;85.00;;;;;;5047269;28;20253;-83
2021/04/20 06:40:37;;;;;;;20.77;18.67;;;7.70;85.10;;;;;;5076056;28;20181;-84
2021/04/20 06:43:06;;;;;;;19.60;17.60;;;7.80;84.60;;;;;;5045699;28;20211;-85
2021/04/20 06:45:57;;;;;;;19.27;17.37;;;7.90;84.90;;;;;;5023748;28;20213;-84
2021/04/20 06:48:49;;;;;;;21.43;19.17;;;7.90;85.50;;;;;;5023038;28;20213;-84
2021/04/20 06:51:21;;;;;;;23.50;20.17;;;7.90;85.70;;;;;;5041689;28;20212;-85
2021/04/20 06:53:51;;;;;;;24.27;21.30;;;8.00;85.90;;;;;;5061171;28;20196;-85
2021/04/20 06:56:29;;;;;;;25.87;22.47;;;8.10;85.00;;;;;;5039477;28;20204;-87
2021/04/20 06:59:11;;;;;;;27.70;24.70;;;8.10;85.90;;;;;;5062021;28;20650;-86
2021/04/20 07:01:49;;;;;;;27.33;24.43;;;8.00;86.90;;;;;;5038396;28;20215;-86
2021/04/20 07:04:33;;;;;;;26.90;24.07;;;8.10;86.70;;;;;;5043916;28;20606;-84
2021/04/20 07:07:23;;;;;;;28.57;24.57;;;8.10;87.00;;;;;;5045959;28;20276;-86
2021/04/20 07:10:10;;;;;;;25.83;23.07;;;8.20;86.60;;;;;;5046710;28;20176;-86
2021/04/20 07:12:38;;;;;;;44.40;40.30;;;8.30;86.20;;;;;;5045902;28;20176;-85
2021/04/20 07:15:06;;;;;;;43.43;39.73;;;8.30;86.30;;;;;;5045250;28;20181;-86
2021/04/20 07:17:57;;;;;;;22.83;20.40;;;8.30;86.40;;;;;;5041526;28;20185;-87
2021/04/20 07:20:46;;;;;;;23.13;20.80;;;8.30;86.10;;;;;;5046261;28;20200;-89
2021/04/20 07:23:15;;;;;;;25.77;21.47;;;8.60;85.70;;;;;;5048426;28;20162;-87
2021/04/20 07:26:05;;;;;;;24.83;22.33;;;8.40;86.70;;;;;;5044381;28;20209;-84
2021/04/20 07:29:03;;;;;;;23.67;21.27;;;8.50;87.10;;;;;;5079871;28;20224;-84
2021/04/20 07:31:55;;;;;;;24.87;22.27;;;8.40;87.30;;;;;;5043563;28;20181;-85
2021/04/20 07:34:45;;;;;;;23.87;21.17;;;8.40;88.20;;;;;;5032991;28;20273;-87
2021/04/20 07:37:24;;;;;;;21.30;19.10;;;8.40;88.90;;;;;;5033308;28;20463;-87
2021/04/20 07:40:03;;;;;;;22.97;20.67;;;8.60;87.20;;;;;;5042234;28;20231;-87
2021/04/20 07:43:00;;;;;;;23.97;21.13;;;8.80;86.90;;;;;;5046419;28;20868;-86
2021/04/20 07:46:07;;;;;;;24.20;21.60;;;9.00;87.20;;;;;;5046243;28;20204;-87
2021/04/20 07:48:42;;;;;;;23.97;21.37;;;9.20;86.60;;;;;;5047168;28;20681;-86
2021/04/20 07:51:24;;;;;;;24.00;21.70;;;9.00;88.40;;;;;;5043100;28;20187;-87
2021/04/20 07:54:15;;;;;;;23.60;21.23;;;9.00;88.80;;;;;;5026631;28;20162;-86
2021/04/20 07:56:59;;;;;;;24.67;22.13;;;9.00;90.10;;;;;;5029993;28;20202;-86
2021/04/20 07:59:41;;;;;;;23.30;20.57;;;9.00;90.40;;;;;;5065580;23;20304;-88
2021/04/20 08:02:41;;;;;;;23.97;21.33;;;9.20;87.90;;;;;;5037379;28;20169;-86
2021/04/20 08:05:12;;;;;;;23.40;21.13;;;9.50;88.70;;;;;;5024976;28;21069;-87
2021/04/20 08:07:51;;;;;;;25.33;22.73;;;9.70;87.90;;;;;;5038910;28;20197;-88
2021/04/20 08:10:18;;;;;;;25.47;23.07;;;9.80;87.10;;;;;;5039795;28;20189;-87
2021/04/20 08:12:50;;;;;;;27.50;24.87;;;9.60;89.20;;;;;;5042360;28;20181;-86
2021/04/20 08:15:36;;;;;;;27.07;24.33;;;9.50;88.90;;;;;;5042544;28;20197;-88
2021/04/20 08:18:12;;;;;;;23.97;21.67;;;9.80;87.10;;;;;;5035078;28;20197;-85
2021/04/20 08:20:41;;;;;;;26.30;23.10;;;10.10;85.20;;;;;;5046317;28;20215;-88
2021/04/20 08:23:09;;;;;;;29.20;24.40;;;10.40;84.70;;;;;;5046979;28;20185;-86
2021/04/20 08:25:40;;;;;;;26.43;23.73;;;10.70;80.40;;;;;;5045741;28;20243;-85
2021/04/20 08:28:29;;;;;;;26.13;23.60;;;10.80;79.70;;;;;;5046559;28;20224;-87
2021/04/20 08:31:19;;;;;;;30.87;24.80;;;11.00;77.80;;;;;;5048189;28;20467;-87
2021/04/20 08:33:47;;;;;;;27.43;24.33;;;11.20;77.30;;;;;;5046967;28;20191;-86
2021/04/20 08:36:48;;;;;;;29.60;25.97;;;11.50;74.20;;;;;;5029506;28;20288;-86
2021/04/20 08:39:29;;;;;;;25.60;22.93;;;11.70;72.80;;;;;;5047034;28;20316;-87
2021/04/20 08:42:17;;;;;;;27.43;24.67;;;11.90;71.60;;;;;;5046501;28;20157;-87
2021/04/20 08:45:04;;;;;;;27.43;24.77;;;12.10;70.60;;;;;;5046637;28;20193;-86
2021/04/20 08:48:03;;;;;;;28.40;25.50;;;12.40;70.30;;;;;;5046451;28;20214;-87
2021/04/20 08:50:32;;;;;;;27.10;24.30;;;12.50;68.70;;;;;;5042716;28;20217;-86
2021/04/20 08:53:36;;;;;;;28.87;25.97;;;12.50;67.80;;;;;;5024472;28;20273;-86
2021/04/20 08:56:14;;;;;;;29.57;26.50;;;12.50;68.60;;;;;;5038619;28;20214;-86
2021/04/20 08:59:08;;;;;;;28.97;26.03;;;12.70;69.40;;;;;;5041470;28;20200;-87
2021/04/20 09:01:44;;;;;;;28.27;24.00;;;12.90;67.60;;;;;;5020311;28;20178;-86
2021/04/20 09:04:48;;;;;;;30.43;27.23;;;13.00;65.70;;;;;;5020053;28;20188;-86
2021/04/20 09:07:47;;;;;;;27.13;24.07;;;13.10;66.50;;;;;;5036445;28;20707;-87
2021/04/20 09:10:23;;;;;;;27.57;24.83;;;13.40;65.20;;;;;;5040352;28;20180;-87
2021/04/20 09:12:59;;;;;;;25.97;23.37;;;13.60;64.20;;;;;;5041158;28;20779;-86
2021/04/20 09:15:26;;;;;;;28.20;25.17;;;13.60;64.20;;;;;;5041124;28;20214;-86
2021/04/20 09:17:58;;;;;;;27.80;24.97;;;13.90;63.40;;;;;;5039834;28;20665;-86
2021/04/20 09:20:39;;;;;;;27.57;24.67;;;13.90;63.80;;;;;;5040540;28;20244;-85
2021/04/20 09:23:14;;;;;;;28.40;25.67;;;14.10;62.20;;;;;;5039471;28;20189;-86
2021/04/20 09:25:56;;;;;;;24.80;22.27;;;14.10;62.40;;;;;;5041923;28;20203;-87
2021/04/20 09:28:39;;;;;;;27.17;24.50;;;14.20;60.40;;;;;;5038838;28;20204;-87
2021/04/20 09:31:12;;;;;;;24.53;22.13;;;14.40;61.40;;;;;;5041217;28;20212;-87
2021/04/20 09:33:45;;;;;;;24.37;21.77;;;14.50;58.60;;;;;;5040286;28;20188;-86
2021/04/20 09:36:12;;;;;;;24.30;21.90;;;14.40;57.70;;;;;;5040990;28;20210;-88
2021/04/20 09:38:45;;;;;;;28.20;25.03;;;14.40;59.70;;;;;;5039019;28;20253;-88
2021/04/20 09:41:13;;;;;;;24.80;22.40;;;14.50;60.10;;;;;;5046740;28;20272;-87
2021/04/20 09:43:46;;;;;;;22.33;20.23;;;14.60;58.50;;;;;;5035673;28;20269;-88
2021/04/20 09:46:37;;;;;;;20.20;18.07;;;14.60;58.30;;;;;;5040758;28;20202;-87
2021/04/20 09:49:16;;;;;;;19.70;17.83;;;14.80;56.20;;;;;;5042219;28;20267;-87
2021/04/20 09:52:12;;;;;;;20.73;18.63;;;15.10;55.10;;;;;;5042605;28;20248;-87
2021/04/20 09:55:10;;;;;;;21.50;19.37;;;15.10;54.00;;;;;;5033278;28;20604;-87
2021/04/20 09:57:40;;;;;;;21.83;19.63;;;15.20;54.70;;;;;;5034953;28;20204;-87
2021/04/20 10:00:10;;;;;;;21.27;19.10;;;15.50;53.70;;;;;;5036844;28;20205;-88
2021/04/20 10:02:51;;;;;;;22.50;20.27;;;15.80;56.60;;;;;;5036356;28;20193;-88
2021/04/20 10:05:19;;;;;;;22.37;20.37;;;16.20;54.00;;;;;;5036629;28;20268;-88
2021/04/20 10:08:06;;;;;;;22.70;20.50;;;16.40;52.40;;;;;;5034864;28;20240;-88
2021/04/20 10:10:57;;;;;;;23.63;21.23;;;16.40;51.20;;;;;;5036608;28;20607;-88
2021/04/20 10:13:45;;;;;;;23.43;21.33;;;16.30;51.90;;;;;;5033758;28;20173;-89
2021/04/20 10:16:18;;;;;;;21.97;19.97;;;16.30;51.70;;;;;;5036891;28;20208;-87
2021/04/20 10:18:58;;;;;;;22.10;19.97;;;16.20;51.80;;;;;;5035363;28;21058;-88
2021/04/20 10:21:45;;;;;;;20.70;18.50;;;16.40;51.10;;;;;;5036465;28;20679;-88
2021/04/20 10:24:23;;;;;;;21.33;19.43;;;16.70;51.10;;;;;;5034007;28;20238;-86
2021/04/20 10:27:10;;;;;;;21.43;19.60;;;16.70;50.40;;;;;;5037553;28;20203;-86
2021/04/20 10:29:54;;;;;;;22.23;20.00;;;16.50;51.10;;;;;;5036065;28;20176;-87
2021/04/20 10:32:30;;;;;;;19.47;17.63;;;16.00;51.30;;;;;;5037196;28;20287;-87
2021/04/20 10:34:56;;;;;;;19.57;17.63;;;15.70;52.60;;;;;;5038440;28;20177;-87
2021/04/20 10:37:40;;;;;;;21.63;19.50;;;15.90;53.10;;;;;;5034948;28;20195;-89
2021/04/20 10:40:10;;;;;;;22.37;20.13;;;16.40;51.40;;;;;;5034318;28;20166;-90
2021/04/20 10:42:37;;;;;;;22.07;19.97;;;16.30;50.90;;;;;;5032613;28;20738;-91
2021/04/20 10:45:06;;;;;;;21.67;19.63;;;16.30;51.90;;;;;;5035156;28;20226;-91
2021/04/20 10:47:34;;;;;;;23.33;21.10;;;16.10;52.20;;;;;;5034828;28;20203;-91
2021/04/20 10:50:03;;;;;;;23.43;21.23;;;16.20;52.90;;;;;;5033236;28;20205;-90
2021/04/20 10:52:34;;;;;;;23.00;20.70;;;16.20;52.60;;;;;;5033394;28;20262;-91
2021/04/20 10:55:14;;;;;;;21.07;19.07;;;16.10;52.70;;;;;;5031493;28;20271;-89
2021/04/20 10:57:47;;;;;;;21.83;19.87;;;16.10;53.20;;;;;;5033201;28;20192;-91
2021/04/20 11:00:16;;;;;;;22.13;20.07;;;15.90;53.20;;;;;;5033033;28;20211;-92
2021/04/20 11:02:48;;;;;;;20.17;18.03;;;15.80;53.70;;;;;;5034597;28;20184;-89
2021/04/20 11:05:21;;;;;;;21.47;19.37;;;16.00;52.20;;;;;;5033048;28;20309;-89
2021/04/20 11:07:48;;;;;;;22.20;20.07;;;16.10;52.60;;;;;;5012767;28;20213;-87
2021/04/20 11:10:16;;;;;;;22.07;20.07;;;16.20;51.30;;;;;;5031998;28;20192;-87
2021/04/20 11:12:46;;;;;;;22.33;20.03;;;16.10;52.00;;;;;;5031793;28;20190;-87
2021/04/20 11:15:27;;;;;;;21.17;19.13;;;16.00;52.50;;;;;;5033526;28;20228;-87
2021/04/20 11:17:55;;;;;;;19.77;17.97;;;16.10;51.90;;;;;;5036897;28;20182;-88
2021/04/20 11:20:30;;;;;;;19.67;17.80;;;16.10;50.90;;;;;;5042874;28;20230;-87
2021/04/20 11:23:09;;;;;;;19.93;18.07;;;16.40;50.90;;;;;;5037473;28;20263;-86
2021/04/20 11:25:40;;;;;;;22.30;20.30;;;16.90;50.70;;;;;;5038145;28;20278;-87
2021/04/20 11:28:22;;;;;;;21.03;18.77;;;17.40;49.00;;;;;;5041465;28;20212;-87
2021/04/20 11:30:56;;;;;;;20.10;18.30;;;18.00;47.80;;;;;;5039122;28;20182;-88
2021/04/20 11:33:37;;;;;;;19.70;18.00;;;18.30;46.40;;;;;;5037554;28;20210;-87
2021/04/20 11:36:13;;;;;;;19.53;17.83;;;18.70;45.80;;;;;;5022179;28;20343;-89
2021/04/20 11:38:46;;;;;;;19.70;18.00;;;18.70;44.70;;;;;;5033488;28;20193;-87
2021/04/20 11:41:14;;;;;;;18.50;16.80;;;18.90;44.30;;;;;;5033167;28;20245;-87
2021/04/20 11:43:42;;;;;;;16.83;15.27;;;19.00;43.50;;;;;;5034275;28;20186;-87
2021/04/20 11:46:16;;;;;;;16.60;15.03;;;19.00;41.80;;;;;;5042151;28;20291;-88
2021/04/20 11:48:44;;;;;;;18.53;16.83;;;19.20;42.50;;;;;;5048308;28;20212;-86
2021/04/20 11:51:10;;;;;;;17.83;16.03;;;19.10;42.70;;;;;;5044702;28;20187;-86
2021/04/20 11:53:42;;;;;;;15.40;14.00;;;19.50;42.00;;;;;;5045992;28;20191;-87
2021/04/20 11:56:09;;;;;;;16.48;14.98;;;19.50;41.00;;;;;;5046476;28;20211;-88
2021/04/20 11:58:40;;;;;;;17.63;16.02;;;20.10;40.40;;;;;;5046447;28;20287;-86
2021/04/20 12:01:21;;;;;;;15.95;14.45;;;20.70;38.70;;;;;;5037510;28;20261;-87
2021/04/20 12:04:00;;;;;;;17.20;15.52;;;20.80;38.90;;;;;;5043167;28;20188;-87
2021/04/20 12:06:36;;;;;;;15.82;14.45;;;21.00;38.10;;;;;;5041988;28;20691;-87
2021/04/20 12:09:02;;;;;;;18.50;16.67;;;21.00;39.10;;;;;;5040284;28;20204;-86
2021/04/20 12:11:30;;;;;;;16.85;15.35;;;21.00;37.30;;;;;;5040563;28;20275;-85
2021/04/20 12:13:59;;;;;;;15.85;14.40;;;21.10;37.50;;;;;;5034701;28;20860;-88
2021/04/20 12:16:32;;;;;;;16.50;15.10;;;21.20;37.50;;;;;;5042016;28;20208;-87
2021/04/20 12:18:58;;;;;;;15.90;14.48;;;21.30;37.60;;;;;;5051091;28;20181;-88
2021/04/20 12:21:30;;;;;;;18.83;17.10;;;20.80;38.40;;;;;;5049886;28;20207;-88
2021/04/20 12:23:59;;;;;;;16.77;15.27;;;20.30;38.90;;;;;;5050983;28;20189;-88
2021/04/20 12:26:31;;;;;;;15.88;14.57;;;20.00;40.50;;;;;;5035041;28;20239;-89
2021/04/20 12:29:01;;;;;;;17.73;15.93;;;19.90;41.80;;;;;;5034831;28;20896;-86
2021/04/20 12:31:35;;;;;;;17.23;15.63;;;19.80;39.90;;;;;;5033565;28;20660;-87
2021/04/20 12:34:01;;;;;;;14.63;13.23;;;19.60;39.80;;;;;;5033849;28;20282;-88
2021/04/20 12:36:33;;;;;;;15.68;14.27;;;19.20;40.60;;;;;;5033250;28;20266;-86
2021/04/20 12:39:06;;;;;;;15.52;14.20;;;18.90;40.90;;;;;;5035885;28;20192;-87
2021/04/20 12:41:33;;;;;;;15.65;14.25;;;18.70;41.10;;;;;;5035706;28;20556;-85
2021/04/20 12:44:05;;;;;;;14.50;13.15;;;18.50;42.40;;;;;;5041284;28;20226;-86
2021/04/20 12:46:34;;;;;;;14.68;13.18;;;18.50;42.70;;;;;;5034247;28;20220;-88
2021/04/20 12:49:03;;;;;;;14.73;13.35;;;18.70;42.20;;;;;;5033032;28;20209;-87
2021/04/20 12:51:32;;;;;;;14.77;13.43;;;19.00;43.90;;;;;;5031733;28;20189;-86
2021/04/20 12:54:01;;;;;;;14.35;12.80;;;19.30;41.50;;;;;;5034656;28;20189;-85
2021/04/20 12:56:32;;;;;;;13.90;12.70;;;19.50;40.70;;;;;;5036181;28;20208;-86
2021/04/20 12:59:00;;;;;;;14.70;13.40;;;19.60;40.00;;;;;;5029865;28;20231;-86